createdAt,value
2023-04-03T00:01:22.588Z,95.58
2023-04-03T00:03:49.780Z,95.08
2023-04-03T00:06:16.861Z,95.46
2023-04-03T00:08:43.717Z,95.00
2023-04-03T00:11:11.374Z,95.22
2023-04-03T00:13:40.149Z,95.65
2023-04-03T00:16:08.944Z,95.33
2023-04-03T00:18:36.399Z,96.29
2023-04-03T00:21:03.904Z,96.03
2023-04-03T00:23:30.927Z,97.01
2023-04-03T00:25:58.099Z,96.88
2023-04-03T00:28:25.249Z,96.58
2023-04-03T00:30:52.884Z,95.85
2023-04-03T00:33:23.091Z,96.10
2023-04-03T00:35:50.708Z,96.23
2023-04-03T00:38:18.239Z,98.17
2023-04-03T00:40:48.558Z,97.79
2023-04-03T00:43:26.093Z,96.90
2023-04-03T00:45:55.594Z,95.75
2023-04-03T00:48:42.290Z,94.75
2023-04-03T00:51:15.771Z,94.36
2023-04-03T00:54:12.115Z,93.74
2023-04-03T00:56:39.576Z,93.94
2023-04-03T00:59:13.226Z,93.91
2023-04-03T01:01:41.237Z,93.36
2023-04-03T01:04:34.525Z,93.09
2023-04-03T01:07:06.261Z,93.74
2023-04-03T01:09:34.576Z,92.38
2023-04-03T01:12:25.713Z,93.11
2023-04-03T01:15:01.259Z,92.06
2023-04-03T01:17:57.623Z,90.61
2023-04-03T01:20:39.510Z,91.60
2023-04-03T01:23:27.586Z,92.70
2023-04-03T01:25:57.467Z,93.19
2023-04-03T01:28:34.148Z,92.51
2023-04-03T01:31:36.539Z,91.26
2023-04-03T01:34:04.280Z,90.60
2023-04-03T01:36:32.666Z,91.34
2023-04-03T01:39:01.449Z,92.27
2023-04-03T01:41:29.234Z,92.90
2023-04-03T01:43:56.160Z,93.08
2023-04-03T01:46:23.764Z,92.44
2023-04-03T01:48:50.889Z,92.91
2023-04-03T01:51:18.173Z,92.90
2023-04-03T01:53:45.129Z,92.96
2023-04-03T01:56:12.151Z,92.44
2023-04-03T01:58:39.478Z,94.26
2023-04-03T02:01:07.209Z,93.96
2023-04-03T02:03:34.136Z,92.25
2023-04-03T02:06:01.135Z,92.23
2023-04-03T02:08:27.970Z,92.50
2023-04-03T02:10:54.878Z,92.70
2023-04-03T02:13:22.088Z,93.50
2023-04-03T02:15:49.030Z,92.61
2023-04-03T02:18:16.409Z,93.28
2023-04-03T02:20:43.592Z,93.62
2023-04-03T02:23:11.211Z,94.37
2023-04-03T02:25:38.912Z,93.77
2023-04-03T02:28:06.616Z,94.11
2023-04-03T02:30:33.557Z,94.38
2023-04-03T02:33:00.753Z,93.50
2023-04-03T02:35:27.715Z,92.95
2023-04-03T02:37:54.610Z,93.40
2023-04-03T02:40:21.513Z,93.96
2023-04-03T02:42:48.392Z,93.94
2023-04-03T02:45:15.256Z,93.26
2023-04-03T02:47:42.625Z,93.18
2023-04-03T02:50:09.894Z,92.50
2023-04-03T02:52:36.759Z,93.23
2023-04-03T02:55:04.774Z,93.21
2023-04-03T02:57:31.747Z,92.30
2023-04-03T02:59:58.774Z,92.18
2023-04-03T03:02:25.953Z,91.15
2023-04-03T03:04:52.836Z,90.22
2023-04-03T03:07:19.723Z,89.67
2023-04-03T03:09:46.671Z,88.54
2023-04-03T03:12:13.558Z,86.89
2023-04-03T03:14:40.577Z,86.20
2023-04-03T03:17:07.460Z,86.18
2023-04-03T03:19:34.320Z,85.58
2023-04-03T03:22:01.196Z,85.12
2023-04-03T03:24:28.037Z,84.61
2023-04-03T03:26:54.882Z,85.22
2023-04-03T03:29:21.908Z,85.62
2023-04-03T03:31:48.851Z,84.67
2023-04-03T03:34:15.817Z,84.33
2023-04-03T03:36:42.801Z,84.71
2023-04-03T03:39:09.656Z,84.41
2023-04-03T03:41:36.550Z,85.15
2023-04-03T03:44:03.388Z,85.04
2023-04-03T03:46:30.432Z,83.43
2023-04-03T03:48:57.379Z,83.64
2023-04-03T03:51:24.271Z,81.93
2023-04-03T03:53:51.308Z,78.61
2023-04-03T03:56:18.200Z,77.72
2023-04-03T03:58:45.077Z,76.32
2023-04-03T04:01:11.992Z,74.99
2023-04-03T04:03:39.027Z,76.25
2023-04-03T04:06:06.222Z,75.30
2023-04-03T04:08:33.073Z,75.89
2023-04-03T04:11:00.126Z,75.43
2023-04-03T04:13:26.989Z,75.60
2023-04-03T04:15:53.881Z,75.03
2023-04-03T04:18:22.474Z,73.93
2023-04-03T04:20:49.854Z,74.35
2023-04-03T04:23:18.820Z,73.85
2023-04-03T04:25:49.997Z,73.91
2023-04-03T04:28:17.729Z,73.69
2023-04-03T04:30:44.969Z,72.58
2023-04-03T04:33:11.917Z,72.26
2023-04-03T04:35:38.993Z,71.71
2023-04-03T04:38:06.151Z,72.35
2023-04-03T04:40:32.995Z,74.99
2023-04-03T04:42:59.856Z,71.71
2023-04-03T04:45:26.730Z,72.46
2023-04-03T04:47:57.229Z,72.85
2023-04-03T04:50:24.451Z,72.61
2023-04-03T04:52:51.316Z,73.49
2023-04-03T04:55:18.215Z,72.85
2023-04-03T04:57:45.089Z,72.36
2023-04-03T05:00:13.197Z,73.00
2023-04-03T05:02:40.084Z,72.00
2023-04-03T05:05:07.871Z,73.33
2023-04-03T05:07:34.739Z,72.62
2023-04-03T05:10:01.597Z,72.69
2023-04-03T05:12:28.456Z,75.03
2023-04-03T05:14:55.332Z,72.33
2023-04-03T05:17:22.336Z,73.14
2023-04-03T05:19:49.420Z,73.31
2023-04-03T05:22:16.357Z,73.75
2023-04-03T05:24:43.324Z,73.46
2023-04-03T05:27:10.250Z,71.68
2023-04-03T05:29:37.092Z,72.79
2023-04-03T05:32:04.208Z,71.47
2023-04-03T05:34:31.075Z,72.25
2023-04-03T05:36:58.011Z,69.71
2023-04-03T05:39:25.503Z,70.92
2023-04-03T05:41:52.403Z,71.24
2023-04-03T05:44:19.273Z,70.74
2023-04-03T05:46:46.168Z,70.96
2023-04-03T05:49:13.017Z,70.55
2023-04-03T05:51:41.556Z,71.40
2023-04-03T05:54:21.674Z,70.21
2023-04-03T05:56:48.656Z,70.75
2023-04-03T05:59:15.492Z,69.58
2023-04-03T06:01:42.941Z,68.72
2023-04-03T06:04:13.553Z,68.11
2023-04-03T06:06:52.742Z,68.01
2023-04-03T06:09:26.675Z,68.10
2023-04-03T06:11:54.424Z,68.43
2023-04-03T06:14:21.458Z,68.31
2023-04-03T06:16:48.464Z,67.47
2023-04-03T06:19:15.746Z,68.18
2023-04-03T06:21:42.964Z,68.32
2023-04-03T06:24:15.744Z,69.21
2023-04-03T06:26:43.286Z,67.19
2023-04-03T06:29:10.242Z,68.35
2023-04-03T06:31:40.899Z,68.94
2023-04-03T06:34:09.663Z,68.71
2023-04-03T06:36:36.916Z,68.74
2023-04-03T06:39:04.568Z,69.18
2023-04-03T06:41:32.410Z,69.62
2023-04-03T06:43:59.699Z,67.39
2023-04-03T06:46:28.199Z,67.93
2023-04-03T06:48:55.208Z,68.90
2023-04-03T06:51:27.968Z,67.86
2023-04-03T06:53:59.604Z,68.02
2023-04-03T06:56:28.089Z,70.18
2023-04-03T06:58:58.220Z,67.89
2023-04-03T07:01:28.956Z,68.32
2023-04-03T07:03:57.078Z,68.27
2023-04-03T07:06:24.197Z,69.10
2023-04-03T07:08:51.588Z,68.70
2023-04-03T07:11:18.462Z,67.99
2023-04-03T07:13:45.437Z,68.93
2023-04-03T07:16:13.113Z,69.07
2023-04-03T07:18:39.950Z,68.43
2023-04-03T07:21:07.327Z,68.48
2023-04-03T07:23:34.538Z,69.30
2023-04-03T07:26:01.390Z,68.42
2023-04-03T07:28:28.282Z,70.23
2023-04-03T07:31:09.804Z,69.75
2023-04-03T07:33:38.376Z,69.85
2023-04-03T07:36:08.101Z,70.44
2023-04-03T07:38:36.819Z,70.25
2023-04-03T07:41:05.747Z,70.50
2023-04-03T07:43:32.849Z,69.78
2023-04-03T07:46:00.116Z,70.97
2023-04-03T07:48:27.914Z,71.06
2023-04-03T07:50:54.807Z,70.95
2023-04-03T07:53:21.882Z,70.75
2023-04-03T07:55:52.720Z,70.99
2023-04-03T07:58:20.069Z,71.01
2023-04-03T08:00:47.803Z,71.20
2023-04-03T08:03:17.881Z,71.94
2023-04-03T08:05:47.926Z,70.98
2023-04-03T08:08:21.327Z,71.13
2023-04-03T08:10:55.765Z,70.46
2023-04-03T08:13:23.667Z,71.93
2023-04-03T08:15:51.148Z,70.82
2023-04-03T08:18:19.530Z,71.63
2023-04-03T08:20:46.734Z,70.95
2023-04-03T08:23:13.957Z,70.08
2023-04-03T08:25:42.925Z,70.94
2023-04-03T08:28:12.472Z,70.24
2023-04-03T08:30:43.704Z,71.20
2023-04-03T08:33:11.916Z,70.98
2023-04-03T08:35:42.954Z,70.16
2023-04-03T08:38:11.670Z,70.87
2023-04-03T08:40:39.664Z,70.90
2023-04-03T08:43:24.495Z,70.54
2023-04-03T08:45:59.041Z,70.08
2023-04-03T08:48:42.157Z,70.69
2023-04-03T08:51:17.078Z,71.64
2023-04-03T08:54:09.962Z,71.97
2023-04-03T08:56:37.564Z,71.75
2023-04-03T08:59:15.256Z,70.99
2023-04-03T09:01:43.423Z,71.85
2023-04-03T09:04:16.299Z,70.91
2023-04-03T09:07:15.111Z,71.71
2023-04-03T09:09:43.794Z,70.97
2023-04-03T09:12:27.705Z,72.04
2023-04-03T09:14:58.866Z,72.73
2023-04-03T09:17:37.746Z,71.01
2023-04-03T09:20:25.698Z,70.51
2023-04-03T09:22:55.269Z,71.79
2023-04-03T09:25:32.091Z,71.62
2023-04-03T09:28:01.224Z,71.94
2023-04-03T09:30:28.792Z,71.50
2023-04-03T09:32:58.574Z,71.30
2023-04-03T09:35:44.705Z,70.83
2023-04-03T09:38:15.344Z,71.40
2023-04-03T09:40:49.419Z,71.78
2023-04-03T09:43:32.523Z,68.52
2023-04-03T09:46:33.157Z,68.30
2023-04-03T09:49:09.723Z,66.59
2023-04-03T09:51:37.750Z,68.36
2023-04-03T09:54:27.372Z,68.29
2023-04-03T09:56:56.848Z,67.35
2023-04-03T09:59:24.150Z,65.20
2023-04-03T10:02:37.735Z,65.08
2023-04-03T10:05:25.870Z,64.48
2023-04-03T10:08:01.712Z,64.52
2023-04-03T10:10:30.853Z,62.65
2023-04-03T10:13:20.106Z,62.30
2023-04-03T10:15:53.925Z,63.25
2023-04-03T10:18:44.183Z,62.76
2023-04-03T10:21:36.619Z,62.26
2023-04-03T10:24:37.683Z,61.77
2023-04-03T10:27:45.294Z,61.56
2023-04-03T10:30:32.113Z,62.43
2023-04-03T10:33:40.225Z,62.67
2023-04-03T10:36:25.086Z,61.68
2023-04-03T10:39:24.840Z,61.22
2023-04-03T10:42:41.399Z,60.11
2023-04-03T10:45:52.090Z,59.66
2023-04-03T10:48:37.563Z,60.83
2023-04-03T10:51:25.799Z,61.12
2023-04-03T10:54:13.178Z,60.99
2023-04-03T10:57:04.621Z,61.50
2023-04-03T10:59:45.304Z,61.42
2023-04-03T11:02:36.644Z,60.68
2023-04-03T11:05:34.378Z,61.12
2023-04-03T11:08:09.119Z,60.59
2023-04-03T11:10:42.767Z,60.25
2023-04-03T11:13:22.027Z,60.61
2023-04-03T11:15:50.220Z,60.10
2023-04-03T11:18:34.010Z,61.11
2023-04-03T11:21:13.962Z,60.54
2023-04-03T11:23:49.698Z,60.35
2023-04-03T11:26:24.196Z,59.58
2023-04-03T11:28:59.461Z,59.29
2023-04-03T11:32:09.924Z,60.61
2023-04-03T11:34:51.287Z,60.44
2023-04-03T11:37:36.956Z,59.71
2023-04-03T11:40:33.545Z,59.24
2023-04-03T11:43:00.276Z,58.88
2023-04-03T11:45:52.049Z,59.32
2023-04-03T11:48:24.531Z,58.63
2023-04-03T11:50:52.471Z,60.36
2023-04-03T11:53:40.331Z,59.30
2023-04-03T11:56:24.946Z,60.53
2023-04-03T11:59:13.708Z,59.92
2023-04-03T12:01:51.933Z,58.87
2023-04-03T12:04:23.226Z,59.24
2023-04-03T12:07:09.746Z,59.38
2023-04-03T12:09:59.352Z,59.12
2023-04-03T12:12:29.959Z,58.40
2023-04-03T12:14:57.250Z,59.32
2023-04-03T12:17:30.539Z,59.74
2023-04-03T12:19:57.770Z,60.14
2023-04-03T12:22:24.889Z,60.27
2023-04-03T12:24:54.184Z,61.48
2023-04-03T12:27:38.352Z,61.21
2023-04-03T12:30:05.201Z,61.33
2023-04-03T12:32:41.524Z,61.17
2023-04-03T12:36:01.773Z,61.23
2023-04-03T12:38:57.209Z,61.63
2023-04-03T12:41:52.382Z,61.27
2023-04-03T12:44:58.039Z,60.33
2023-04-03T12:47:31.082Z,60.88
2023-04-03T12:50:00.603Z,61.05
2023-04-03T12:52:38.524Z,59.50
2023-04-03T12:55:19.281Z,60.24
2023-04-03T12:57:46.858Z,59.02
2023-04-03T13:00:36.211Z,59.14
2023-04-03T13:03:05.267Z,57.28
2023-04-03T13:05:36.710Z,59.02
2023-04-03T13:08:16.177Z,57.36
2023-04-03T13:11:02.544Z,56.43
2023-04-03T13:13:29.887Z,56.94
2023-04-03T13:15:57.453Z,58.09
2023-04-03T13:18:33.454Z,58.07
2023-04-03T13:21:16.802Z,57.83
2023-04-03T13:23:50.121Z,57.38
2023-04-03T13:26:20.359Z,56.17
2023-04-03T13:28:48.608Z,55.84
2023-04-03T13:31:15.858Z,57.40
2023-04-03T13:34:08.320Z,57.03
2023-04-03T13:36:47.173Z,56.90
2023-04-03T13:39:13.915Z,57.02
2023-04-03T13:41:46.480Z,55.24
2023-04-03T13:44:37.766Z,55.34
2023-04-03T13:47:25.720Z,56.08
2023-04-03T13:50:23.838Z,57.06
2023-04-03T13:52:57.102Z,55.21
2023-04-03T13:55:27.951Z,54.49
2023-04-03T13:58:05.066Z,55.56
2023-04-03T14:00:52.011Z,55.05
2023-04-03T14:03:29.590Z,56.00
2023-04-03T14:05:56.665Z,56.03
2023-04-03T14:08:29.426Z,55.19
2023-04-03T14:11:03.260Z,55.82
2023-04-03T14:13:32.882Z,55.79
2023-04-03T14:16:05.922Z,57.96
2023-04-03T14:18:42.232Z,58.31
2023-04-03T14:21:13.586Z,59.57
2023-04-03T14:23:40.764Z,59.85
2023-04-03T14:26:34.093Z,60.47
2023-04-03T14:29:00.943Z,60.52
2023-04-03T14:31:27.900Z,58.78
2023-04-03T14:33:54.805Z,60.47
2023-04-03T14:36:26.482Z,59.44
2023-04-03T14:38:54.664Z,59.68
2023-04-03T14:41:24.629Z,60.70
2023-04-03T14:43:52.426Z,59.71
2023-04-03T14:46:32.442Z,59.01
2023-04-03T14:49:36.171Z,59.02
2023-04-03T14:52:02.994Z,58.02
2023-04-03T14:54:30.312Z,56.66
2023-04-03T14:56:59.940Z,57.33
2023-04-03T14:59:28.161Z,56.86
2023-04-03T15:01:55.027Z,55.92
2023-04-03T15:04:22.505Z,55.92
2023-04-03T15:06:50.234Z,54.00
2023-04-03T15:09:26.714Z,52.52
2023-04-03T15:11:56.201Z,53.61
2023-04-03T15:14:35.450Z,54.77
2023-04-03T15:17:06.147Z,56.02
2023-04-03T15:19:39.279Z,57.46
2023-04-03T15:22:06.712Z,59.21
2023-04-03T15:24:33.642Z,59.46
2023-04-03T15:27:02.124Z,58.97
2023-04-03T15:29:29.064Z,59.00
2023-04-03T15:31:56.140Z,58.29
2023-04-03T15:34:23.317Z,56.33
2023-04-03T15:36:54.039Z,57.13
2023-04-03T15:39:22.031Z,56.38
2023-04-03T15:41:49.341Z,56.83
2023-04-03T15:44:18.803Z,55.60
2023-04-03T15:46:47.554Z,56.91
2023-04-03T15:49:14.563Z,57.64
2023-04-03T15:51:41.840Z,56.70
2023-04-03T15:54:08.892Z,56.07
2023-04-03T15:56:35.735Z,57.33
2023-04-03T15:59:02.671Z,56.27
2023-04-03T16:01:29.585Z,55.95
2023-04-03T16:03:57.054Z,56.00
2023-04-03T16:06:26.072Z,56.42
2023-04-03T16:08:53.155Z,55.20
2023-04-03T16:11:20.077Z,54.93
2023-04-03T16:13:46.951Z,54.76
2023-04-03T16:16:13.857Z,55.22
2023-04-03T16:18:40.769Z,54.35
2023-04-03T16:21:09.274Z,52.68
2023-04-03T16:23:36.841Z,53.91
2023-04-03T16:26:03.785Z,54.73
2023-04-03T16:28:30.642Z,55.61
2023-04-03T16:30:57.718Z,55.92
2023-04-03T16:33:25.586Z,56.48
2023-04-03T16:35:53.230Z,56.74
2023-04-03T16:38:20.721Z,56.69
2023-04-03T16:40:47.753Z,56.39
2023-04-03T16:43:14.573Z,57.29
2023-04-03T16:45:41.766Z,55.75
2023-04-03T16:48:09.198Z,56.15
2023-04-03T16:50:36.164Z,56.90
2023-04-03T16:53:04.154Z,55.79
2023-04-03T16:55:31.245Z,56.26
2023-04-03T16:57:58.075Z,55.05
2023-04-03T17:00:24.932Z,55.47
2023-04-03T17:02:51.916Z,54.96
2023-04-03T17:05:18.851Z,55.17
2023-04-03T17:07:45.800Z,55.06
2023-04-03T17:10:13.566Z,56.05
2023-04-03T17:12:40.390Z,55.98
2023-04-03T17:15:08.028Z,57.39
2023-04-03T17:17:35.006Z,58.40
2023-04-03T17:20:02.140Z,58.15
2023-04-03T17:22:30.200Z,58.51
2023-04-03T17:25:00.121Z,58.13
2023-04-03T17:27:27.457Z,58.58
2023-04-03T17:29:54.301Z,58.31
2023-04-03T17:32:21.225Z,58.00
2023-04-03T17:34:48.322Z,57.49
2023-04-03T17:37:15.284Z,57.07
2023-04-03T17:39:42.174Z,56.93
2023-04-03T17:42:09.084Z,57.39
2023-04-03T17:44:36.024Z,57.63
2023-04-03T17:47:05.722Z,57.73
2023-04-03T17:49:33.562Z,57.54
2023-04-03T17:52:00.455Z,57.43
2023-04-03T17:54:27.346Z,57.77
2023-04-03T17:56:54.301Z,58.01
2023-04-03T17:59:21.299Z,57.01
2023-04-03T18:01:48.352Z,58.01
2023-04-03T18:04:15.774Z,57.80
2023-04-03T18:06:52.459Z,56.91
2023-04-03T18:09:23.833Z,57.99
2023-04-03T18:11:51.721Z,57.44
2023-04-03T18:14:23.302Z,57.33
2023-04-03T18:16:50.464Z,58.05
2023-04-03T18:19:23.318Z,57.22
2023-04-03T18:21:52.949Z,57.94
2023-04-03T18:24:21.109Z,58.11
2023-04-03T18:26:59.345Z,58.01
2023-04-03T18:29:28.590Z,59.03
2023-04-03T18:31:56.544Z,57.46
2023-04-03T18:34:23.533Z,57.69
2023-04-03T18:36:50.462Z,56.66
2023-04-03T18:39:17.354Z,57.28
2023-04-03T18:41:45.321Z,56.97
2023-04-03T18:44:16.296Z,56.44
2023-04-03T18:46:43.291Z,55.92
2023-04-03T18:49:11.692Z,58.03
2023-04-03T18:51:39.779Z,57.44
2023-04-03T18:54:10.043Z,56.78
2023-04-03T18:56:37.704Z,57.39
2023-04-03T18:59:05.462Z,56.11
2023-04-03T19:01:33.187Z,58.35
2023-04-03T19:04:00.722Z,56.78
2023-04-03T19:06:28.330Z,57.81
2023-04-03T19:08:55.294Z,59.12
2023-04-03T19:11:23.203Z,58.43
2023-04-03T19:16:20.193Z,58.46
2023-04-03T19:18:47.210Z,59.03
2023-04-03T19:21:15.119Z,59.38
2023-04-03T19:23:44.898Z,59.95
2023-04-03T19:26:13.867Z,60.24
2023-04-03T19:28:42.536Z,60.58
2023-04-03T19:31:16.563Z,61.03
2023-04-03T19:33:44.665Z,61.41
2023-04-03T19:36:12.234Z,61.41
2023-04-03T19:38:39.689Z,61.53
2023-04-03T19:41:10.314Z,61.93
2023-04-03T19:43:37.595Z,62.32
2023-04-03T19:46:07.135Z,62.69
2023-04-03T19:48:35.672Z,63.43
2023-04-03T19:51:04.887Z,63.43
2023-04-03T19:53:32.620Z,64.09
2023-04-03T19:55:59.843Z,64.88
2023-04-03T19:58:30.224Z,65.23
2023-04-03T20:00:58.552Z,65.51
2023-04-03T20:03:26.446Z,65.57
2023-04-03T20:05:55.075Z,66.00
2023-04-03T20:08:21.934Z,66.26
2023-04-03T20:10:49.191Z,67.01
2023-04-03T20:13:16.219Z,67.86
2023-04-03T20:15:45.068Z,68.46
2023-04-03T20:18:20.135Z,68.54
2023-04-03T20:21:02.708Z,68.91
2023-04-03T20:23:30.528Z,69.01
2023-04-03T20:26:09.532Z,70.76
2023-04-03T20:28:42.925Z,71.34
2023-04-03T20:31:12.148Z,71.71
2023-04-03T20:33:39.308Z,71.37
2023-04-03T20:36:06.398Z,72.43
2023-04-03T20:38:33.344Z,72.50
2023-04-03T20:41:00.519Z,73.32
2023-04-03T20:43:28.516Z,73.78
2023-04-03T20:45:55.882Z,73.00
2023-04-03T20:48:22.849Z,73.35
2023-04-03T20:50:49.845Z,74.13
2023-04-03T20:53:19.230Z,75.94
2023-04-03T20:56:01.087Z,75.62
2023-04-03T20:58:35.754Z,75.20
2023-04-03T21:01:02.881Z,75.14
2023-04-03T21:03:30.756Z,75.07
2023-04-03T21:06:00.778Z,75.69
2023-04-03T21:09:24.152Z,75.75
2023-04-03T21:12:47.515Z,75.81
2023-04-03T21:15:49.314Z,76.93
2023-04-03T21:18:22.726Z,77.74
2023-04-03T21:20:49.819Z,76.51
2023-04-03T21:23:17.328Z,76.98
2023-04-03T21:25:44.276Z,76.88
2023-04-03T21:28:11.580Z,76.56
2023-04-03T21:30:38.438Z,76.50
2023-04-03T21:33:05.406Z,76.85
2023-04-03T21:35:38.358Z,77.56
2023-04-03T21:38:05.895Z,76.53
2023-04-03T21:40:32.752Z,76.93
2023-04-03T21:42:59.676Z,77.07
2023-04-03T21:45:26.556Z,76.30
2023-04-03T21:47:54.116Z,75.68
2023-04-03T21:50:21.612Z,75.46
2023-04-03T21:52:48.707Z,75.96
2023-04-03T21:55:15.726Z,75.95
2023-04-03T21:57:42.640Z,75.85
2023-04-03T22:00:11.133Z,76.08
2023-04-03T22:02:41.847Z,74.83
2023-04-03T22:05:08.919Z,70.04
2023-04-03T22:07:35.863Z,68.63
2023-04-03T22:10:03.044Z,70.11
2023-04-03T22:12:30.210Z,67.78
2023-04-03T22:14:57.048Z,67.35
2023-04-03T22:17:23.902Z,64.98
2023-04-03T22:19:50.850Z,64.87
2023-04-03T22:22:17.830Z,66.09
2023-04-03T22:24:44.889Z,64.73
2023-04-03T22:27:13.226Z,65.71
2023-04-03T22:29:40.283Z,63.94
2023-04-03T22:32:07.123Z,62.97
2023-04-03T22:34:35.064Z,63.39
2023-04-03T22:37:02.138Z,63.29
2023-04-03T22:39:29.025Z,63.65
2023-04-03T22:41:56.101Z,63.55
2023-04-03T22:44:24.325Z,63.70
2023-04-03T22:46:53.055Z,63.75
2023-04-03T22:49:19.893Z,63.45
2023-04-03T22:51:47.040Z,63.89
2023-04-03T22:54:13.939Z,63.80
2023-04-03T22:56:40.986Z,63.75
2023-04-03T22:59:08.258Z,63.99
2023-04-03T23:01:40.460Z,64.01
2023-04-03T23:04:07.442Z,63.58
2023-04-03T23:06:34.388Z,63.46
2023-04-03T23:09:01.518Z,63.00
2023-04-03T23:11:28.532Z,62.84
2023-04-03T23:13:55.666Z,63.59
2023-04-03T23:16:22.617Z,62.16
2023-04-03T23:18:50.230Z,62.75
2023-04-03T23:21:17.101Z,62.26
2023-04-03T23:23:43.947Z,62.92
2023-04-03T23:26:11.317Z,62.76
2023-04-03T23:28:38.360Z,63.05
2023-04-03T23:31:10.367Z,63.00
2023-04-03T23:33:38.970Z,62.40
2023-04-03T23:36:09.581Z,62.61
2023-04-03T23:38:37.644Z,62.74
2023-04-03T23:41:05.064Z,63.56
2023-04-03T23:43:32.231Z,62.84
2023-04-03T23:45:59.405Z,62.84
2023-04-03T23:48:26.682Z,62.64
2023-04-03T23:50:53.555Z,62.92
2023-04-03T23:53:20.397Z,62.70
2023-04-03T23:55:47.373Z,63.04
2023-04-03T23:58:15.203Z,61.93
